createdAt,value
2023-03-06T00:03:57.571Z,590.00
2023-03-06T00:07:57.653Z,594.00
2023-03-06T00:11:57.838Z,597.00
2023-03-06T00:15:58.005Z,595.00
2023-03-06T00:19:58.157Z,600.00
2023-03-06T00:23:58.367Z,592.00
2023-03-06T00:27:58.528Z,593.00
2023-03-06T00:31:58.933Z,590.00
2023-03-06T00:35:58.951Z,591.00
2023-03-06T00:39:59.112Z,591.00
2023-03-06T00:43:59.275Z,590.00
2023-03-06T00:47:59.451Z,593.00
2023-03-06T00:51:59.644Z,596.00
2023-03-06T00:55:59.872Z,594.00
2023-03-06T01:00:00.017Z,589.00
2023-03-06T01:04:00.184Z,589.00
2023-03-06T01:08:00.371Z,593.00
2023-03-06T01:12:00.584Z,592.00
2023-03-06T01:16:00.737Z,591.00
2023-03-06T01:20:00.915Z,593.00
2023-03-06T01:24:01.142Z,592.00
2023-03-06T01:28:01.267Z,590.00
2023-03-06T01:32:01.597Z,589.00
2023-03-06T01:36:01.672Z,592.00
2023-03-06T01:40:01.883Z,586.00
2023-03-06T01:44:02.059Z,588.00
2023-03-06T01:48:02.244Z,591.00
2023-03-06T01:52:02.447Z,589.00
2023-03-06T01:56:02.637Z,585.00
2023-03-06T02:00:02.846Z,585.00
2023-03-06T02:04:03.018Z,587.00
2023-03-06T02:08:03.254Z,590.00
2023-03-06T02:12:03.437Z,591.00
2023-03-06T02:16:03.669Z,591.00
2023-03-06T02:20:03.954Z,587.00
2023-03-06T02:24:04.093Z,593.00
2023-03-06T02:28:04.254Z,591.00
2023-03-06T02:32:04.531Z,586.00
2023-03-06T02:36:04.687Z,587.00
2023-03-06T02:40:04.854Z,586.00
2023-03-06T02:44:05.069Z,586.00
2023-03-06T02:48:05.239Z,587.00
2023-03-06T02:52:05.470Z,592.00
2023-03-06T02:56:05.665Z,591.00
2023-03-06T03:00:05.872Z,592.00
2023-03-06T03:04:06.142Z,595.00
2023-03-06T03:08:06.256Z,594.00
2023-03-06T03:12:06.519Z,590.00
2023-03-06T03:16:06.711Z,587.00
2023-03-06T03:20:06.909Z,588.00
2023-03-06T03:24:07.124Z,589.00
2023-03-06T03:28:07.309Z,593.00
2023-03-06T03:32:07.545Z,588.00
2023-03-06T03:36:07.467Z,588.00
2023-03-06T03:40:07.428Z,594.00
2023-03-06T03:44:07.400Z,594.00
2023-03-06T03:48:07.389Z,583.00
2023-03-06T03:52:07.355Z,581.00
2023-03-06T03:56:07.259Z,585.00
2023-03-06T04:00:07.251Z,586.00
2023-03-06T04:04:07.226Z,586.00
2023-03-06T04:08:07.196Z,583.00
2023-03-06T04:12:07.123Z,579.00
2023-03-06T04:16:07.214Z,582.00
2023-03-06T04:20:07.439Z,586.00
2023-03-06T04:24:07.642Z,581.00
2023-03-06T04:28:07.890Z,578.00
2023-03-06T04:32:08.128Z,577.00
2023-03-06T04:36:08.281Z,577.00
2023-03-06T04:40:08.476Z,572.00
2023-03-06T04:44:08.680Z,578.00
2023-03-06T04:48:08.896Z,578.00
2023-03-06T04:52:09.066Z,577.00
2023-03-06T04:56:09.305Z,582.00
2023-03-06T05:00:09.457Z,583.00
2023-03-06T05:04:09.645Z,590.00
2023-03-06T05:08:09.818Z,586.00
2023-03-06T05:12:09.989Z,588.00
2023-03-06T05:16:10.253Z,587.00
2023-03-06T05:20:10.304Z,585.00
2023-03-06T05:24:10.486Z,586.00
2023-03-06T05:28:10.649Z,589.00
2023-03-06T05:32:10.926Z,591.00
2023-03-06T05:36:11.004Z,588.00
2023-03-06T05:40:11.169Z,592.00
2023-03-06T05:44:11.324Z,593.00
2023-03-06T05:48:11.476Z,593.00
2023-03-06T05:52:11.663Z,588.00
2023-03-06T05:56:11.784Z,592.00
2023-03-06T06:00:11.940Z,593.00
2023-03-06T06:04:12.050Z,593.00
2023-03-06T06:08:12.211Z,592.00
2023-03-06T06:12:12.348Z,586.00
2023-03-06T06:16:12.560Z,586.00
2023-03-06T06:20:12.598Z,586.00
2023-03-06T06:24:12.723Z,590.00
2023-03-06T06:28:12.851Z,589.00
2023-03-06T06:32:13.076Z,592.00
2023-03-06T06:36:13.086Z,602.00
2023-03-06T06:40:13.230Z,697.00
2023-03-06T06:44:13.782Z,706.00
2023-03-06T06:48:16.038Z,816.00
2023-03-06T06:52:13.797Z,956.00
2023-03-06T06:56:13.340Z,1092.00
2023-03-06T07:00:13.769Z,1280.00
2023-03-06T07:04:13.338Z,1428.00
2023-03-06T07:08:13.288Z,1551.00
2023-03-06T07:12:13.170Z,1630.00
2023-03-06T07:16:13.356Z,1809.00
2023-03-06T07:20:13.102Z,1871.00
2023-03-06T07:24:13.047Z,1954.00
2023-03-06T07:28:13.105Z,2015.00
2023-03-06T07:32:13.071Z,2130.00
2023-03-06T07:36:14.057Z,2213.00
2023-03-06T07:40:13.020Z,2320.00
2023-03-06T07:44:13.357Z,2384.00
2023-03-06T07:48:13.842Z,2532.00
2023-03-06T07:52:13.790Z,2522.00
2023-03-06T07:56:13.795Z,1526.00
2023-03-06T08:00:13.352Z,1167.00
2023-03-06T08:04:13.549Z,1819.00
2023-03-06T08:08:13.252Z,1857.00
2023-03-06T08:12:15.174Z,1987.00
2023-03-06T08:16:13.240Z,2105.00
2023-03-06T08:20:13.166Z,2172.00
2023-03-06T08:24:13.311Z,2275.00
2023-03-06T08:28:13.056Z,2438.00
2023-03-06T08:32:13.079Z,2591.00
2023-03-06T08:36:12.997Z,2606.00
2023-03-06T08:40:12.973Z,2700.00
2023-03-06T08:44:13.327Z,2774.00
2023-03-06T08:48:12.876Z,2786.00
2023-03-06T08:52:13.320Z,2758.00
2023-03-06T08:56:12.795Z,2787.00
2023-03-06T09:00:12.816Z,2839.00
2023-03-06T09:04:12.907Z,2898.00
2023-03-06T09:08:13.311Z,2902.00
2023-03-06T09:12:13.232Z,2934.00
2023-03-06T09:16:13.472Z,2973.00
2023-03-06T09:20:13.517Z,3012.00
2023-03-06T09:24:13.711Z,3038.00
2023-03-06T09:28:13.865Z,3071.00
2023-03-06T09:32:14.062Z,3092.00
2023-03-06T09:36:14.213Z,3123.00
2023-03-06T09:40:14.878Z,3124.00
2023-03-06T09:44:14.878Z,3134.00
2023-03-06T09:48:14.927Z,3199.00
2023-03-06T09:52:14.854Z,2684.00
2023-03-06T09:56:14.939Z,1702.00
2023-03-06T10:00:15.370Z,2555.00
2023-03-06T10:04:14.938Z,2276.00
2023-03-06T10:08:15.352Z,2088.00
2023-03-06T10:12:14.936Z,2104.00
2023-03-06T10:16:14.949Z,2143.00
2023-03-06T10:20:15.371Z,2180.00
2023-03-06T10:24:14.859Z,2211.00
2023-03-06T10:28:14.898Z,2242.00
2023-03-06T10:32:14.807Z,2271.00
2023-03-06T10:36:14.936Z,2298.00
2023-03-06T10:40:14.868Z,2315.00
2023-03-06T10:44:14.902Z,2360.00
2023-03-06T10:48:14.652Z,2413.00
2023-03-06T10:52:14.871Z,2256.00
2023-03-06T10:56:14.885Z,1089.00
2023-03-06T11:00:14.671Z,973.00
2023-03-06T11:04:14.808Z,1363.00
2023-03-06T11:08:14.899Z,1713.00
2023-03-06T11:12:15.369Z,1751.00
2023-03-06T11:16:15.325Z,1877.00
2023-03-06T11:20:15.433Z,2020.00
2023-03-06T11:24:15.886Z,2130.00
2023-03-06T11:28:15.674Z,2291.00
2023-03-06T11:32:15.782Z,2411.00
2023-03-06T11:36:15.903Z,2476.00
2023-03-06T11:40:16.402Z,2505.00
2023-03-06T11:44:16.401Z,2504.00
2023-03-06T11:48:16.233Z,2476.00
2023-03-06T11:52:16.398Z,2455.00
2023-03-06T11:56:16.577Z,2433.00
2023-03-06T12:00:16.852Z,2442.00
2023-03-06T12:04:16.790Z,2423.00
2023-03-06T12:08:16.702Z,2410.00
2023-03-06T12:16:16.661Z,2400.00
2023-03-06T12:20:16.619Z,2394.00
2023-03-06T12:24:16.550Z,2383.00
2023-03-06T12:28:16.551Z,2375.00
2023-03-06T12:32:17.289Z,2370.00
2023-03-06T12:36:16.937Z,2368.00
2023-03-06T12:40:16.640Z,2357.00
2023-03-06T12:44:16.578Z,2332.00
2023-03-06T12:48:16.539Z,2316.00
2023-03-06T12:52:18.696Z,2304.00
2023-03-06T12:56:16.451Z,2279.00
2023-03-06T13:00:16.451Z,2269.00
2023-03-06T13:04:16.397Z,2255.00
2023-03-06T13:08:16.387Z,2271.00
2023-03-06T13:12:16.310Z,2265.00
2023-03-06T13:16:16.379Z,2259.00
2023-03-06T13:20:16.272Z,2258.00
2023-03-06T13:24:16.449Z,2247.00
2023-03-06T13:28:16.167Z,2257.00
2023-03-06T13:32:16.484Z,2253.00
2023-03-06T13:36:16.101Z,2235.00
2023-03-06T13:40:16.246Z,2208.00
2023-03-06T13:44:16.203Z,2193.00
2023-03-06T13:48:37.397Z,2182.00
2023-03-06T13:52:17.099Z,2167.00
2023-03-06T13:56:16.138Z,2164.00
2023-03-06T14:00:16.187Z,2155.00
2023-03-06T14:04:16.110Z,2135.00
2023-03-06T14:08:16.091Z,2122.00
2023-03-06T14:12:16.022Z,2094.00
2023-03-06T14:16:16.073Z,2076.00
2023-03-06T14:20:15.934Z,2051.00
2023-03-06T14:24:15.893Z,2033.00
2023-03-06T14:28:15.850Z,2023.00
2023-03-06T14:32:15.914Z,2001.00
2023-03-06T14:36:15.833Z,1992.00
2023-03-06T14:40:15.771Z,1984.00
2023-03-06T14:44:15.732Z,1963.00
2023-03-06T14:48:15.701Z,1952.00
2023-03-06T14:52:15.696Z,1942.00
2023-03-06T14:56:15.633Z,1923.00
2023-03-06T15:00:15.627Z,1901.00
2023-03-06T15:04:16.001Z,1891.00
2023-03-06T15:08:15.601Z,1872.00
2023-03-06T15:12:15.524Z,1866.00
2023-03-06T15:16:15.647Z,1860.00
2023-03-06T15:20:15.765Z,1839.00
2023-03-06T15:24:16.583Z,1832.00
2023-03-06T15:28:16.150Z,1827.00
2023-03-06T15:32:16.168Z,1810.00
2023-03-06T15:36:16.093Z,1802.00
2023-03-06T15:40:16.083Z,1787.00
2023-03-06T15:44:16.058Z,1781.00
2023-03-06T15:48:16.031Z,1775.00
2023-03-06T15:52:15.970Z,1767.00
2023-03-06T15:56:15.914Z,1753.00
2023-03-06T16:00:26.942Z,1744.00
2023-03-06T16:04:16.951Z,1734.00
2023-03-06T16:08:15.871Z,1725.00
2023-03-06T16:12:15.978Z,1724.00
2023-03-06T16:16:15.856Z,1729.00
2023-03-06T16:20:15.718Z,1728.00
2023-03-06T16:24:15.695Z,1732.00
2023-03-06T16:28:15.715Z,1723.00
2023-03-06T16:32:15.803Z,1719.00
2023-03-06T16:36:15.591Z,1713.00
2023-03-06T16:40:15.581Z,1711.00
2023-03-06T16:44:15.519Z,1716.00
2023-03-06T16:48:15.488Z,1710.00
2023-03-06T16:52:15.464Z,1697.00
2023-03-06T16:56:15.425Z,1695.00
2023-03-06T17:00:15.362Z,1693.00
2023-03-06T17:04:15.326Z,1692.00
2023-03-06T17:08:15.294Z,1690.00
2023-03-06T17:12:15.262Z,1687.00
2023-03-06T17:16:15.229Z,1680.00
2023-03-06T17:20:15.207Z,1684.00
2023-03-06T17:24:15.129Z,1677.00
2023-03-06T17:28:15.122Z,1671.00
2023-03-06T17:32:15.166Z,1671.00
2023-03-06T17:36:15.030Z,1670.00
2023-03-06T17:40:15.012Z,1668.00
2023-03-06T17:44:15.037Z,1661.00
2023-03-06T17:48:15.091Z,1654.00
2023-03-06T17:52:15.124Z,1650.00
2023-03-06T17:56:15.155Z,1640.00
2023-03-06T18:00:15.238Z,1633.00
2023-03-06T18:04:15.261Z,1632.00
2023-03-06T18:08:15.334Z,1625.00
2023-03-06T18:12:15.428Z,1620.00
2023-03-06T18:16:15.575Z,1624.00
2023-03-06T18:20:15.624Z,1615.00
2023-03-06T18:24:15.738Z,1600.00
2023-03-06T18:28:15.822Z,1594.00
2023-03-06T18:32:16.015Z,1589.00
2023-03-06T18:36:16.038Z,1581.00
2023-03-06T18:40:16.114Z,1569.00
2023-03-06T18:44:16.248Z,1563.00
2023-03-06T18:48:16.375Z,1561.00
2023-03-06T18:52:16.491Z,1550.00
2023-03-06T18:56:16.608Z,1533.00
2023-03-06T19:00:16.722Z,1530.00
2023-03-06T19:04:16.857Z,1520.00
2023-03-06T19:08:16.967Z,1517.00
2023-03-06T19:12:17.088Z,1503.00
2023-03-06T19:16:17.260Z,1497.00
2023-03-06T19:20:17.354Z,1496.00
2023-03-06T19:24:17.529Z,1490.00
2023-03-06T19:28:17.694Z,1480.00
2023-03-06T19:32:17.900Z,1474.00
2023-03-06T19:36:17.994Z,1479.00
2023-03-06T19:40:18.222Z,1474.00
2023-03-06T19:44:18.351Z,1459.00
2023-03-06T19:48:18.489Z,1445.00
2023-03-06T19:52:18.695Z,1447.00
2023-03-06T19:56:18.915Z,1437.00
2023-03-06T20:00:19.089Z,1437.00
2023-03-06T20:04:19.278Z,1432.00
2023-03-06T20:08:19.468Z,1429.00
2023-03-06T20:12:19.650Z,1418.00
2023-03-06T20:16:19.860Z,1419.00
2023-03-06T20:20:20.014Z,1405.00
2023-03-06T20:24:20.203Z,1394.00
2023-03-06T20:28:20.397Z,1394.00
2023-03-06T20:32:20.666Z,1394.00
2023-03-06T20:36:20.787Z,1393.00
2023-03-06T20:40:20.761Z,1379.00
2023-03-06T20:44:20.761Z,1373.00
2023-03-06T20:48:20.748Z,1365.00
2023-03-06T20:52:20.726Z,1359.00
2023-03-06T20:56:20.736Z,1353.00
2023-03-06T21:00:20.773Z,1350.00
2023-03-06T21:04:20.752Z,1351.00
2023-03-06T21:08:20.785Z,1338.00
2023-03-06T21:12:20.739Z,1335.00
2023-03-06T21:16:20.805Z,1334.00
2023-03-06T21:20:20.790Z,1320.00
2023-03-06T21:24:21.420Z,1309.00
2023-03-06T21:28:20.789Z,1308.00
2023-03-06T21:32:20.835Z,1308.00
2023-03-06T21:36:20.825Z,1306.00
2023-03-06T21:40:20.879Z,1299.00
2023-03-06T21:44:20.896Z,1292.00
2023-03-06T21:48:20.906Z,1279.00
2023-03-06T21:52:20.924Z,1271.00
2023-03-06T21:56:21.111Z,1269.00
2023-03-06T22:00:21.088Z,1268.00
2023-03-06T22:04:21.023Z,1262.00
2023-03-06T22:08:20.995Z,1247.00
2023-03-06T22:12:20.937Z,1242.00
2023-03-06T22:16:21.010Z,1241.00
2023-03-06T22:20:20.858Z,1246.00
2023-03-06T22:24:20.843Z,1242.00
2023-03-06T22:28:20.797Z,1233.00
2023-03-06T22:32:20.824Z,1233.00
2023-03-06T22:36:20.858Z,1226.00
2023-03-06T22:40:20.853Z,1223.00
2023-03-06T22:44:20.834Z,1207.00
2023-03-06T22:48:20.764Z,1209.00
2023-03-06T22:52:20.742Z,1200.00
2023-03-06T22:56:20.711Z,1200.00
2023-03-06T23:00:20.656Z,1203.00
2023-03-06T23:04:20.656Z,1198.00
2023-03-06T23:08:20.579Z,1185.00
2023-03-06T23:12:20.551Z,1186.00
2023-03-06T23:16:20.499Z,1183.00
2023-03-06T23:20:20.498Z,1177.00
2023-03-06T23:24:20.687Z,1177.00
2023-03-06T23:28:20.856Z,1177.00
2023-03-06T23:32:21.065Z,1173.00
2023-03-06T23:36:21.205Z,1172.00
2023-03-06T23:40:21.194Z,1164.00
2023-03-06T23:44:21.129Z,1157.00
2023-03-06T23:48:21.118Z,1147.00
2023-03-06T23:52:21.062Z,1149.00
2023-03-06T23:56:21.053Z,1148.00
